Terminal Aerodrome Forecast
Issued by NWS

Home | Current Version | Previous Version | Text Only | Print | Product List | Glossary On
Versions: 1 2 3 4 5 6 7 8 9 10 11 12 13 14 15 16 17 18 19
688
FTUS43 KAPX 281725
TAFMBL
TAF
KMBL 281725Z 2818/2918 30006KT P6SM BKN025
     FM281900 30007KT P6SM BKN035
     FM290100 00000KT P6SM FEW250
     FM290600 00000KT 1SM BR SCT002
     FM291300 VRB03KT P6SM SCT250=

USA.gov is the U.S. government's official web portal to all federal, state and local government web resources and services.